Starbuck, Minnesota
Current Conditions -  °F | °C
As of 6:53 PM on Friday 19 Dec 2014 (Local Time) from KGHW Reporting Station
Haze Haze  
Wind Chill: 21°   Ceiling: 600
Heat Index: 30°   Visibility: 4mi
Dew Point: 28°   Wind: 12mph
Humidity: 93%   Direction: 170°S
Pressure: 30.09"   Gusts: NA
Location:  45.61°N, 95.53°W
Report Text: KGHW 200053Z AUTO 17010KT 4SM BR OVC006 M01/M02 A3009 RMK AO2
Loading
Personal Weather Stations






























Interactive Weather Map New forecast layout! Learn more

10-Day Weather Forecast

Advertisements
Track Severe Weather on mobile